Time;durP1;ratioP1;P1;durP2;ratioP2;P2;SDS_P1;SDS_P2;PMS_P1;PMS_P2;Temp;Humidity;BMP_temperature;BMP_pressure;BME280_temperature;BME280_humidity;BME280_pressure;Samples;Min_cycle;Max_cycle;Signal;HPM_P1;HPM_P2
2022/04/30 00:02:12;;;;;;;5.53;3.17;;;6.70;99.90;;;;;;5039003;28;20208;-61
2022/04/30 00:04:40;;;;;;;4.07;3.43;;;6.70;99.90;;;;;;5071440;28;20203;-61
2022/04/30 00:07:09;;;;;;;7.23;3.13;;;6.70;99.90;;;;;;5046899;28;20203;-61
2022/04/30 00:09:37;;;;;;;4.27;2.90;;;6.60;99.90;;;;;;5058739;28;20215;-61
2022/04/30 00:12:04;;;;;;;4.47;2.87;;;6.60;99.90;;;;;;5073864;28;20218;-61
2022/04/30 00:14:31;;;;;;;5.37;2.80;;;6.50;99.90;;;;;;5056593;28;20895;-61
2022/04/30 00:16:58;;;;;;;8.23;2.47;;;6.30;99.90;;;;;;5064818;28;20204;-61
2022/04/30 00:19:25;;;;;;;3.50;2.70;;;6.20;99.90;;;;;;5098142;28;20212;-61
2022/04/30 00:21:53;;;;;;;3.20;2.47;;;5.90;99.90;;;;;;5072721;28;20215;-61
2022/04/30 00:24:22;;;;;;;6.50;3.30;;;5.80;99.90;;;;;;5069664;28;20197;-61
2022/04/30 00:26:49;;;;;;;4.40;2.83;;;5.70;99.90;;;;;;5059495;28;20215;-61
2022/04/30 00:29:17;;;;;;;3.87;2.60;;;5.70;99.90;;;;;;5064648;28;20646;-61
2022/04/30 00:31:44;;;;;;;3.63;2.90;;;5.70;99.90;;;;;;5051949;28;20297;-61
2022/04/30 00:34:11;;;;;;;4.20;2.80;;;5.70;99.90;;;;;;5063462;28;20203;-61
2022/04/30 00:36:38;;;;;;;7.17;2.90;;;5.60;99.90;;;;;;5070723;28;20338;-61
2022/04/30 00:39:05;;;;;;;9.13;3.30;;;5.60;99.90;;;;;;5061323;28;20673;-61
2022/04/30 00:41:34;;;;;;;6.13;2.87;;;5.50;99.90;;;;;;5038234;28;20233;-62
2022/04/30 00:44:01;;;;;;;6.67;3.03;;;5.50;99.90;;;;;;5037451;28;20200;-62
2022/04/30 00:46:29;;;;;;;6.37;3.00;;;5.50;99.90;;;;;;5053607;28;20205;-61
2022/04/30 00:48:57;;;;;;;9.40;3.40;;;5.50;99.90;;;;;;5031123;28;20236;-61
2022/04/30 00:51:27;;;;;;;6.03;3.33;;;5.60;99.90;;;;;;5070557;28;20200;-61
2022/04/30 00:53:55;;;;;;;5.83;3.10;;;5.60;99.90;;;;;;5047100;28;20222;-61
2022/04/30 00:56:26;;;;;;;4.80;3.07;;;5.60;99.90;;;;;;5053453;28;20888;-61
2022/04/30 00:58:56;;;;;;;4.17;3.40;;;5.60;99.90;;;;;;5048661;28;20322;-61
2022/04/30 01:01:24;;;;;;;7.63;3.47;;;5.70;99.90;;;;;;5055284;28;20235;-60
2022/04/30 01:03:50;;;;;;;6.30;4.20;;;5.80;99.90;;;;;;5034489;28;20219;-61
2022/04/30 01:06:21;;;;;;;9.93;3.97;;;5.80;99.90;;;;;;5069564;28;20200;-61
2022/04/30 01:08:48;;;;;;;5.63;3.97;;;5.90;99.90;;;;;;5056172;28;20612;-61
2022/04/30 01:11:16;;;;;;;6.40;3.80;;;5.90;99.90;;;;;;5036398;28;20220;-61
2022/04/30 01:13:45;;;;;;;5.40;3.50;;;5.90;99.90;;;;;;5066826;28;20266;-61
2022/04/30 01:16:14;;;;;;;4.90;3.50;;;5.90;99.90;;;;;;5035414;28;20774;-61
2022/04/30 01:18:41;;;;;;;7.07;3.93;;;5.90;99.90;;;;;;5050783;28;20207;-61
2022/04/30 01:21:12;;;;;;;5.93;3.97;;;5.80;99.90;;;;;;5054598;28;20235;-61
2022/04/30 01:23:43;;;;;;;6.87;4.70;;;5.80;99.90;;;;;;5055045;28;20314;-61
2022/04/30 01:26:11;;;;;;;7.73;4.10;;;5.80;99.90;;;;;;5052862;28;20196;-61
2022/04/30 01:28:38;;;;;;;7.00;3.70;;;5.80;99.90;;;;;;5053781;28;20208;-61
2022/04/30 01:37:22;;;;;;;7.77;4.00;;;5.80;99.90;;;;;;5054490;28;20212;-61
2022/04/30 01:39:22;;;;;;;12.20;4.37;;;5.70;99.90;;;;;;5049600;28;20207;-61
2022/04/30 01:41:49;;;;;;;7.17;4.20;;;5.70;99.90;;;;;;5055167;28;20239;-61
2022/04/30 01:44:19;;;;;;;6.57;4.13;;;5.80;99.90;;;;;;5061514;28;20212;-61
2022/04/30 01:46:47;;;;;;;8.63;3.53;;;5.80;99.90;;;;;;5050555;28;20204;-61
2022/04/30 01:49:16;;;;;;;4.73;4.07;;;5.80;99.90;;;;;;5041710;28;20212;-61
2022/04/30 01:51:49;;;;;;;8.37;4.43;;;5.80;99.90;;;;;;5064801;28;20204;-61
2022/04/30 01:54:16;;;;;;;7.80;4.60;;;5.80;99.90;;;;;;5049488;28;20773;-61
2022/04/30 01:56:45;;;;;;;7.30;4.00;;;5.70;99.90;;;;;;5054427;28;20223;-61
2022/04/30 01:59:12;;;;;;;9.53;4.30;;;5.70;99.90;;;;;;5063268;28;20211;-61
2022/04/30 02:01:42;;;;;;;5.63;3.97;;;5.60;99.90;;;;;;5052790;28;20227;-61
2022/04/30 02:04:09;;;;;;;8.30;4.17;;;5.60;99.90;;;;;;5071483;28;20975;-61
2022/04/30 02:06:36;;;;;;;8.47;4.00;;;5.60;99.90;;;;;;5029040;28;20235;-61
2022/04/30 02:09:03;;;;;;;8.40;4.10;;;5.50;99.90;;;;;;5057567;28;20797;-61
2022/04/30 02:11:30;;;;;;;8.17;4.43;;;5.50;99.90;;;;;;5050135;28;20196;-61
2022/04/30 02:14:01;;;;;;;7.17;4.37;;;5.50;99.90;;;;;;5062462;28;20200;-61
2022/04/30 02:16:31;;;;;;;7.90;4.30;;;5.50;99.90;;;;;;5054658;28;20259;-61
2022/04/30 02:18:59;;;;;;;7.63;4.73;;;5.60;99.90;;;;;;5045534;28;20204;-61
2022/04/30 02:21:30;;;;;;;6.50;4.03;;;5.70;99.90;;;;;;5048813;28;20227;-61
2022/04/30 02:23:58;;;;;;;11.07;3.93;;;5.60;99.90;;;;;;5056419;28;20299;-61
2022/04/30 02:26:27;;;;;;;11.43;4.50;;;5.60;99.90;;;;;;5050104;28;20230;-61
2022/04/30 02:28:55;;;;;;;6.40;3.67;;;5.60;99.90;;;;;;5055571;28;20215;-61
2022/04/30 02:31:25;;;;;;;5.03;3.70;;;5.60;99.90;;;;;;5043662;28;20211;-61
2022/04/30 02:33:55;;;;;;;6.40;4.00;;;5.60;99.90;;;;;;5055630;28;20226;-61
2022/04/30 02:36:25;;;;;;;6.23;3.97;;;5.60;99.90;;;;;;5050340;28;20265;-61
2022/04/30 02:38:53;;;;;;;4.67;3.93;;;5.60;99.90;;;;;;5057112;28;20204;-61
2022/04/30 02:41:21;;;;;;;4.37;3.80;;;5.30;99.90;;;;;;5058736;28;20227;-61
2022/04/30 02:43:50;;;;;;;4.37;3.67;;;5.30;99.90;;;;;;5050480;28;20253;-61
2022/04/30 02:46:17;;;;;;;6.23;3.43;;;5.20;99.90;;;;;;5069961;28;21013;-61
2022/04/30 02:49:04;;;;;;;8.83;3.90;;;5.20;99.90;;;;;;5056826;28;20905;-61
2022/04/30 02:51:31;;;;;;;7.07;3.57;;;5.10;99.90;;;;;;5038581;28;20287;-61
2022/04/30 02:53:58;;;;;;;5.20;3.63;;;5.10;99.90;;;;;;5071668;28;20201;-61
2022/04/30 02:56:25;;;;;;;6.60;3.33;;;5.10;99.90;;;;;;5050201;28;20720;-61
2022/04/30 03:01:36;;;;;;;5.27;4.17;;;5.00;99.90;;;;;;5048998;28;20223;-60
2022/04/30 03:04:04;;;;;;;5.87;3.77;;;5.00;99.90;;;;;;5087442;28;20192;-61
2022/04/30 03:06:33;;;;;;;8.37;4.17;;;5.00;99.90;;;;;;5053721;28;20218;-60
2022/04/30 03:09:00;;;;;;;8.27;3.87;;;5.00;99.90;;;;;;5077443;28;20765;-62
2022/04/30 03:11:27;;;;;;;8.07;4.30;;;5.00;99.90;;;;;;5051187;28;20208;-61
2022/04/30 03:13:54;;;;;;;8.43;4.30;;;5.00;99.90;;;;;;5054196;28;20203;-61
2022/04/30 03:21:52;;;;;;;10.53;4.10;;;4.80;99.90;;;;;;5041461;28;20281;-62
2022/04/30 03:24:19;;;;;;;6.87;4.10;;;4.70;99.90;;;;;;5056365;28;20326;-61
2022/04/30 03:26:47;;;;;;;7.93;3.63;;;4.70;99.90;;;;;;5056299;28;20223;-61
2022/04/30 03:29:15;;;;;;;11.80;4.40;;;4.70;99.90;;;;;;5042555;28;20204;-61
2022/04/30 03:31:43;;;;;;;5.57;3.73;;;4.70;99.90;;;;;;5070037;28;20565;-61
2022/04/30 03:34:12;;;;;;;9.33;4.57;;;4.70;99.90;;;;;;5064532;28;20206;-61
2022/04/30 03:36:39;;;;;;;5.83;3.80;;;4.70;99.90;;;;;;5048334;28;20211;-61
2022/04/30 03:39:07;;;;;;;9.83;4.10;;;4.80;99.90;;;;;;5054161;28;20219;-61
2022/04/30 03:41:35;;;;;;;5.87;4.07;;;4.70;99.90;;;;;;5052673;28;20892;-61
2022/04/30 03:44:02;;;;;;;7.23;4.03;;;4.80;99.90;;;;;;5043987;28;20206;-61
2022/04/30 03:46:29;;;;;;;8.17;4.10;;;4.80;99.90;;;;;;5059930;28;20209;-61
2022/04/30 03:48:56;;;;;;;8.90;4.53;;;4.80;99.90;;;;;;5067249;28;20211;-61
2022/04/30 03:51:25;;;;;;;5.43;3.83;;;4.80;99.90;;;;;;5038152;28;20199;-61
2022/04/30 03:53:54;;;;;;;6.03;4.37;;;4.70;99.90;;;;;;5052109;28;20232;-61
2022/04/30 03:56:21;;;;;;;6.97;4.83;;;4.80;99.90;;;;;;5051943;28;20216;-61
2022/04/30 03:58:49;;;;;;;8.37;4.00;;;4.70;99.90;;;;;;5044511;28;20199;-61
2022/04/30 04:01:18;;;;;;;6.70;4.07;;;4.70;99.90;;;;;;5070284;28;20220;-61
2022/04/30 04:03:48;;;;;;;8.00;4.13;;;4.80;99.90;;;;;;5051860;28;20576;-61
2022/04/30 04:06:16;;;;;;;12.77;4.90;;;4.80;99.90;;;;;;5052663;28;20196;-61
2022/04/30 04:08:49;;;;;;;11.83;4.47;;;4.90;99.90;;;;;;5043348;28;20235;-61
2022/04/30 04:11:16;;;;;;;5.67;4.40;;;4.90;99.90;;;;;;5062653;28;20218;-61
2022/04/30 04:19:12;;;;;;;8.20;5.20;;;4.90;99.90;;;;;;5053591;28;20208;-61
2022/04/30 04:21:40;;;;;;;7.20;4.83;;;4.90;99.90;;;;;;5056142;28;20224;-61
2022/04/30 04:26:53;;;;;;;6.80;5.13;;;5.10;99.90;;;;;;5040086;28;20266;-61
2022/04/30 04:29:22;;;;;;;9.63;6.10;;;5.10;99.90;;;;;;5056482;28;20211;-61
2022/04/30 04:31:49;;;;;;;10.07;5.60;;;5.20;99.90;;;;;;5045037;28;21186;-61
2022/04/30 04:34:16;;;;;;;9.27;5.87;;;5.30;99.90;;;;;;5051713;28;20249;-61
2022/04/30 04:36:42;;;;;;;7.33;5.50;;;5.30;99.90;;;;;;5069421;28;20954;-61
2022/04/30 04:39:13;;;;;;;9.47;4.80;;;5.30;99.90;;;;;;5038540;28;20203;-61
2022/04/30 04:41:41;;;;;;;8.87;5.53;;;5.30;99.90;;;;;;5074292;28;20231;-60
2022/04/30 04:44:09;;;;;;;10.90;6.40;;;5.30;99.90;;;;;;5041675;28;20203;-61
2022/04/30 04:46:37;;;;;;;10.63;5.93;;;5.40;99.90;;;;;;5054154;28;20696;-61
2022/04/30 04:49:05;;;;;;;9.37;5.17;;;5.40;99.90;;;;;;5055519;28;20206;-61
2022/04/30 04:51:33;;;;;;;12.10;6.53;;;5.40;99.90;;;;;;5050002;28;20204;-61
2022/04/30 04:54:01;;;;;;;11.83;6.50;;;5.40;99.90;;;;;;5039702;28;20204;-61
2022/04/30 04:56:29;;;;;;;10.40;6.23;;;5.40;99.90;;;;;;5066517;28;20216;-61
2022/04/30 04:58:56;;;;;;;9.10;6.00;;;5.40;99.90;;;;;;5044431;28;20676;-61
2022/04/30 05:01:23;;;;;;;10.37;6.80;;;5.50;99.90;;;;;;5051675;28;20228;-61
2022/04/30 05:03:50;;;;;;;10.90;6.00;;;5.60;99.90;;;;;;5055687;28;20227;-61
2022/04/30 05:06:17;;;;;;;10.33;6.43;;;5.60;99.90;;;;;;5062729;28;20291;-61
2022/04/30 05:08:44;;;;;;;10.90;6.53;;;5.70;99.90;;;;;;5047474;28;20736;-61
2022/04/30 05:11:11;;;;;;;11.60;6.60;;;5.80;99.90;;;;;;5053175;28;20211;-60
2022/04/30 05:13:40;;;;;;;12.10;6.33;;;5.80;99.90;;;;;;5048886;28;20206;-61
2022/04/30 05:16:09;;;;;;;8.27;5.70;;;5.80;99.90;;;;;;5067399;28;20200;-61
2022/04/30 05:18:36;;;;;;;10.13;5.87;;;5.90;99.90;;;;;;5057804;28;20673;-61
2022/04/30 05:21:03;;;;;;;12.33;6.43;;;5.90;99.90;;;;;;5056404;28;20231;-61
2022/04/30 05:23:29;;;;;;;9.87;6.70;;;6.00;99.90;;;;;;5045390;28;20196;-61
2022/04/30 05:25:56;;;;;;;11.17;6.50;;;6.00;99.90;;;;;;5054107;28;20208;-61
2022/04/30 05:28:23;;;;;;;14.83;6.97;;;6.10;99.90;;;;;;5062377;28;20208;-61
2022/04/30 05:30:51;;;;;;;10.37;6.17;;;6.10;99.90;;;;;;5058929;28;20204;-61
2022/04/30 05:33:18;;;;;;;10.50;6.80;;;6.10;99.90;;;;;;5041497;28;20200;-61
2022/04/30 05:35:45;;;;;;;12.07;6.40;;;6.10;99.90;;;;;;5062304;28;20293;-61
2022/04/30 05:38:12;;;;;;;11.17;6.57;;;6.20;99.90;;;;;;5063735;28;20204;-61
2022/04/30 05:40:40;;;;;;;12.30;6.40;;;6.20;99.90;;;;;;5039206;28;20203;-61
2022/04/30 05:43:07;;;;;;;13.80;6.93;;;6.20;99.90;;;;;;5063455;28;20234;-61
2022/04/30 05:45:34;;;;;;;11.87;6.93;;;6.30;99.90;;;;;;5072807;28;20211;-62
2022/04/30 05:48:02;;;;;;;14.87;6.90;;;6.30;99.90;;;;;;5044131;28;21083;-61
2022/04/30 05:50:29;;;;;;;10.03;6.67;;;6.40;99.90;;;;;;5057738;28;20212;-61
2022/04/30 05:52:56;;;;;;;15.60;7.37;;;6.40;99.90;;;;;;5050076;28;20269;-61
2022/04/30 05:55:24;;;;;;;13.67;6.53;;;6.50;99.90;;;;;;5051946;28;20203;-61
2022/04/30 05:57:51;;;;;;;14.77;6.70;;;6.50;99.90;;;;;;5047439;28;20986;-61
2022/04/30 06:00:19;;;;;;;14.03;6.83;;;6.50;99.90;;;;;;5047192;28;24740;-61
2022/04/30 06:02:48;;;;;;;12.07;6.13;;;6.70;99.90;;;;;;5032420;28;20317;-61
2022/04/30 06:05:17;;;;;;;10.17;6.77;;;6.90;99.90;;;;;;5032817;28;23406;-61
2022/04/30 06:07:44;;;;;;;15.67;7.03;;;7.00;99.90;;;;;;5047217;28;20247;-61
2022/04/30 06:10:11;;;;;;;9.33;6.70;;;7.10;99.90;;;;;;5022445;28;20204;-61
2022/04/30 06:12:39;;;;;;;15.63;7.07;;;7.20;99.90;;;;;;5037890;28;20235;-61
2022/04/30 06:15:07;;;;;;;10.20;6.47;;;7.40;99.90;;;;;;5044571;28;20224;-61
2022/04/30 06:17:34;;;;;;;12.23;6.83;;;7.50;99.90;;;;;;5051843;28;20232;-61
2022/04/30 06:20:01;;;;;;;11.67;6.73;;;7.60;99.90;;;;;;5028369;28;20436;-61
2022/04/30 06:22:30;;;;;;;13.63;6.10;;;7.70;99.90;;;;;;5043107;28;20891;-61
2022/04/30 06:24:58;;;;;;;12.13;5.80;;;7.80;99.90;;;;;;5064172;28;20227;-61
2022/04/30 06:27:24;;;;;;;9.17;5.73;;;8.00;99.90;;;;;;5040942;28;20236;-62
2022/04/30 06:29:51;;;;;;;10.17;5.77;;;8.10;99.90;;;;;;5041260;28;20206;-61
2022/04/30 06:32:19;;;;;;;16.30;6.27;;;8.20;99.90;;;;;;5035718;28;20402;-61
2022/04/30 06:34:46;;;;;;;10.17;5.73;;;8.20;99.90;;;;;;5035788;28;20268;-61
2022/04/30 06:37:13;;;;;;;14.43;6.90;;;8.20;99.90;;;;;;5048601;28;20213;-61
2022/04/30 06:39:41;;;;;;;11.90;5.80;;;8.30;99.90;;;;;;5037492;28;21030;-62
2022/04/30 06:42:09;;;;;;;10.07;5.03;;;8.40;99.90;;;;;;5042306;28;20225;-61
2022/04/30 06:44:36;;;;;;;18.23;6.13;;;8.50;99.90;;;;;;5041988;28;20227;-61
2022/04/30 06:47:03;;;;;;;8.23;5.97;;;8.60;99.90;;;;;;5047904;28;22782;-61
2022/04/30 06:49:37;;;;;;;11.93;5.87;;;8.80;99.90;;;;;;5048105;28;20211;-62
2022/04/30 06:52:05;;;;;;;9.27;5.27;;;8.80;99.90;;;;;;5047032;28;20226;-61
2022/04/30 06:57:21;;;;;;;8.90;4.83;;;8.80;99.90;;;;;;5033712;28;20763;-61
2022/04/30 06:59:56;;;;;;;14.10;5.20;;;8.80;99.90;;;;;;5068143;22;20955;-61
2022/04/30 07:02:23;;;;;;;7.63;4.93;;;8.90;99.90;;;;;;5053159;28;20297;-61
2022/04/30 07:04:52;;;;;;;16.23;5.27;;;8.80;99.90;;;;;;5064119;28;20318;-61
2022/04/30 07:07:19;;;;;;;10.03;4.40;;;8.80;99.90;;;;;;5066546;28;20199;-61
2022/04/30 07:09:47;;;;;;;8.13;4.23;;;8.80;99.90;;;;;;5052866;28;20235;-61
2022/04/30 07:12:14;;;;;;;7.13;4.20;;;8.80;99.90;;;;;;5074981;28;20229;-62
2022/04/30 07:14:44;;;;;;;13.50;4.47;;;8.90;99.90;;;;;;5071263;28;20222;-61
2022/04/30 07:17:13;;;;;;;11.50;5.13;;;8.80;99.90;;;;;;5057247;28;20450;-61
2022/04/30 07:19:41;;;;;;;9.67;4.53;;;8.80;99.90;;;;;;5069406;28;20596;-64
2022/04/30 07:22:09;;;;;;;8.93;4.07;;;8.80;99.90;;;;;;5077383;28;20233;-61
2022/04/30 07:24:36;;;;;;;9.83;3.70;;;8.90;99.90;;;;;;5074945;28;20207;-61
2022/04/30 07:27:04;;;;;;;6.30;4.13;;;8.90;99.90;;;;;;5074560;28;20203;-61
2022/04/30 07:29:32;;;;;;;5.53;3.70;;;9.00;99.90;;;;;;5075650;28;20200;-61
2022/04/30 07:32:01;;;;;;;10.20;3.47;;;9.10;99.90;;;;;;5085706;28;20218;-61
2022/04/30 07:34:28;;;;;;;5.90;3.40;;;9.10;99.90;;;;;;5082499;28;20207;-61
2022/04/30 07:36:55;;;;;;;9.07;3.83;;;9.10;99.90;;;;;;5063061;28;21015;-61
2022/04/30 07:39:22;;;;;;;8.47;3.20;;;9.10;99.90;;;;;;5062948;28;20204;-62
2022/04/30 07:41:49;;;;;;;8.47;3.37;;;9.20;99.90;;;;;;5068161;28;20590;-61
2022/04/30 07:44:17;;;;;;;7.30;3.53;;;9.20;99.90;;;;;;5046841;28;20344;-61
2022/04/30 07:46:44;;;;;;;8.63;3.20;;;9.20;99.90;;;;;;5071811;28;20199;-61
2022/04/30 07:49:12;;;;;;;5.97;2.87;;;9.30;99.90;;;;;;5081216;28;20237;-61
2022/04/30 07:51:52;;;;;;;4.97;2.90;;;9.50;99.90;;;;;;5042331;28;20227;-62
2022/04/30 07:54:21;;;;;;;5.53;3.37;;;9.50;99.90;;;;;;5076278;28;20751;-62
2022/04/30 07:56:48;;;;;;;6.10;3.43;;;9.50;99.90;;;;;;5063793;28;20250;-61
2022/04/30 07:59:15;;;;;;;5.70;2.83;;;9.50;99.90;;;;;;5064341;28;20230;-61
2022/04/30 08:01:42;;;;;;;3.50;2.80;;;9.50;99.90;;;;;;5068113;27;20222;-61
2022/04/30 08:04:09;;;;;;;6.37;2.80;;;9.40;99.90;;;;;;5079876;28;20215;-62
2022/04/30 08:06:37;;;;;;;6.97;2.60;;;9.40;99.90;;;;;;5059270;28;20688;-61
2022/04/30 08:09:04;;;;;;;6.90;2.73;;;9.50;99.90;;;;;;5073745;28;20210;-61
2022/04/30 08:11:32;;;;;;;6.67;2.73;;;9.70;99.90;;;;;;5063400;28;20226;-61
2022/04/30 08:13:59;;;;;;;8.27;2.83;;;9.90;99.90;;;;;;5067821;28;20270;-61
2022/04/30 08:16:27;;;;;;;5.90;2.27;;;9.90;99.90;;;;;;5073811;28;20243;-62
2022/04/30 08:18:54;;;;;;;6.10;2.80;;;10.00;99.90;;;;;;5081347;28;20219;-61
2022/04/30 08:21:21;;;;;;;5.00;2.67;;;10.00;99.90;;;;;;5077187;28;20208;-62
2022/04/30 08:23:50;;;;;;;8.63;3.47;;;10.20;99.90;;;;;;5067405;28;20227;-62
2022/04/30 08:26:17;;;;;;;6.70;2.47;;;10.30;99.90;;;;;;5087073;28;20243;-62
2022/04/30 08:28:45;;;;;;;7.97;2.97;;;10.30;99.90;;;;;;5081019;28;20622;-61
2022/04/30 08:31:18;;;;;;;5.50;3.13;;;10.20;99.90;;;;;;5084755;28;20307;-62
2022/04/30 08:33:45;;;;;;;4.47;2.60;;;10.30;99.90;;;;;;5102764;28;20211;-62
2022/04/30 08:36:14;;;;;;;5.73;2.73;;;10.30;99.90;;;;;;5102449;28;20224;-62
2022/04/30 08:38:41;;;;;;;7.10;3.03;;;10.20;99.90;;;;;;5082260;28;20776;-61
2022/04/30 08:41:11;;;;;;;7.77;2.63;;;10.10;99.90;;;;;;5072440;28;20211;-62
2022/04/30 08:43:40;;;;;;;7.73;2.87;;;10.20;99.90;;;;;;5083315;28;20223;-63
2022/04/30 08:46:08;;;;;;;4.40;2.30;;;10.20;99.90;;;;;;5067675;28;20261;-63
2022/04/30 08:48:36;;;;;;;7.03;2.63;;;10.40;99.90;;;;;;5076115;28;20247;-62
2022/04/30 08:51:03;;;;;;;5.87;2.83;;;10.50;99.90;;;;;;5056648;28;20226;-62
2022/04/30 08:53:30;;;;;;;7.13;2.67;;;10.60;99.90;;;;;;5069697;28;20225;-62
2022/04/30 08:55:58;;;;;;;4.50;3.37;;;10.70;99.90;;;;;;5059151;28;20581;-62
2022/04/30 08:58:26;;;;;;;2.87;2.20;;;10.80;99.90;;;;;;5065013;28;20199;-60
2022/04/30 09:00:54;;;;;;;7.37;2.10;;;10.80;99.90;;;;;;5047538;28;20254;-61
2022/04/30 09:03:21;;;;;;;6.32;2.38;;;11.00;99.90;;;;;;5081605;28;20227;-61
2022/04/30 09:05:49;;;;;;;2.40;1.97;;;11.00;99.90;;;;;;5074494;28;20241;-60
2022/04/30 09:08:18;;;;;;;4.45;2.25;;;11.00;99.90;;;;;;5063831;28;20980;-61
2022/04/30 09:10:47;;;;;;;4.82;2.10;;;11.10;99.90;;;;;;5070874;28;20959;-60
2022/04/30 09:13:16;;;;;;;4.10;2.03;;;11.10;99.90;;;;;;5054091;28;20259;-60
2022/04/30 09:15:46;;;;;;;4.07;2.08;;;11.20;99.90;;;;;;5069654;28;20230;-60
2022/04/30 09:18:17;;;;;;;2.95;1.90;;;11.40;99.90;;;;;;5058991;28;20296;-60
2022/04/30 09:20:47;;;;;;;8.45;2.33;;;11.30;99.90;;;;;;5072404;28;20971;-60
2022/04/30 09:23:25;;;;;;;3.60;1.85;;;11.40;99.90;;;;;;5061219;28;20222;-61
2022/04/30 09:25:53;;;;;;;6.57;2.30;;;11.30;99.90;;;;;;5070511;28;20258;-60
2022/04/30 09:28:25;;;;;;;2.03;1.75;;;11.30;99.90;;;;;;5056880;28;20236;-61
2022/04/30 09:31:04;;;;;;;4.07;1.90;;;11.50;99.90;;;;;;5068598;28;21411;-60
2022/04/30 09:33:31;;;;;;;2.03;1.83;;;11.50;99.90;;;;;;5053407;28;20814;-60
2022/04/30 09:38:48;;;;;;;2.88;1.50;;;11.50;99.90;;;;;;5052422;28;20231;-60
2022/04/30 09:41:23;;;;;;;2.70;2.00;;;11.50;99.90;;;;;;5064761;28;20226;-61
2022/04/30 09:44:00;;;;;;;2.00;1.80;;;11.70;99.90;;;;;;5062335;28;20226;-61
2022/04/30 09:46:28;;;;;;;2.55;1.95;;;11.80;99.90;;;;;;5062174;28;20330;-61
2022/04/30 09:54:27;;;;;;;3.25;1.80;;;11.90;99.90;;;;;;5087963;28;20225;-60
2022/04/30 09:56:55;;;;;;;2.83;1.50;;;12.00;99.90;;;;;;5061083;28;20219;-61
2022/04/30 09:59:23;;;;;;;2.20;1.42;;;11.80;99.90;;;;;;5076263;28;20235;-60
2022/04/30 10:01:54;;;;;;;3.30;1.70;;;11.80;99.90;;;;;;5069224;28;20214;-61
2022/04/30 10:04:20;;;;;;;2.30;1.27;;;11.80;99.90;;;;;;5090272;28;20219;-61
2022/04/30 10:06:49;;;;;;;2.03;1.40;;;11.90;99.90;;;;;;5085717;28;20196;-61
2022/04/30 10:09:19;;;;;;;1.80;1.27;;;11.80;99.90;;;;;;5090262;28;20898;-61
2022/04/30 10:11:54;;;;;;;1.55;1.17;;;11.90;99.90;;;;;;5069254;28;20307;-61
2022/04/30 10:14:35;;;;;;;4.50;1.50;;;12.00;99.90;;;;;;5081260;28;20214;-60
2022/04/30 10:17:18;;;;;;;3.72;1.20;;;11.90;99.90;;;;;;5071953;28;20549;-60
2022/04/30 10:19:57;;;;;;;4.60;1.30;;;12.00;99.90;;;;;;5081967;28;20754;-60
2022/04/30 10:22:24;;;;;;;3.97;1.50;;;11.90;99.90;;;;;;5084346;28;20203;-61
2022/04/30 10:24:56;;;;;;;1.92;1.50;;;11.80;99.90;;;;;;5072208;28;20200;-60
2022/04/30 10:27:23;;;;;;;3.42;1.15;;;11.70;99.90;;;;;;5087431;28;20207;-60
2022/04/30 10:29:55;;;;;;;6.50;1.40;;;11.60;99.90;;;;;;5063767;28;20199;-61
2022/04/30 10:32:32;;;;;;;3.58;1.35;;;11.40;99.90;;;;;;5084372;28;20723;-60
2022/04/30 10:35:01;;;;;;;2.47;1.33;;;11.50;99.90;;;;;;5074619;28;20210;-61
2022/04/30 10:37:32;;;;;;;4.43;1.20;;;11.40;99.90;;;;;;5086447;28;20192;-60
2022/04/30 10:39:59;;;;;;;3.55;1.38;;;11.40;99.90;;;;;;5083232;28;20191;-60
2022/04/30 10:42:42;;;;;;;2.60;1.60;;;11.50;99.90;;;;;;5075377;28;20219;-64
2022/04/30 10:45:13;;;;;;;2.97;1.45;;;11.70;99.90;;;;;;5074359;28;20233;-60
2022/04/30 10:47:53;;;;;;;2.05;1.40;;;11.90;99.90;;;;;;5087481;28;20202;-60
2022/04/30 10:50:20;;;;;;;2.08;1.23;;;12.10;99.90;;;;;;5069440;28;20207;-60
2022/04/30 10:52:49;;;;;;;1.88;1.20;;;12.20;99.90;;;;;;5084694;28;20272;-60
2022/04/30 10:55:17;;;;;;;5.18;1.40;;;12.30;99.90;;;;;;5086978;28;20664;-60
2022/04/30 10:57:45;;;;;;;1.35;1.17;;;12.30;99.90;;;;;;5078892;28;20672;-61
2022/04/30 11:00:14;;;;;;;4.70;1.77;;;12.40;99.90;;;;;;5076578;28;20200;-60
2022/04/30 11:02:41;;;;;;;1.75;1.25;;;12.20;99.90;;;;;;5080526;28;20204;-60
2022/04/30 11:05:18;;;;;;;1.73;1.17;;;12.20;99.90;;;;;;5078199;28;20212;-60
2022/04/30 11:07:46;;;;;;;2.38;1.30;;;12.30;99.90;;;;;;5087363;28;20198;-61
2022/04/30 11:10:14;;;;;;;1.50;1.40;;;12.40;99.90;;;;;;5094179;28;20736;-60
2022/04/30 11:12:41;;;;;;;1.98;1.08;;;12.30;99.90;;;;;;5087575;28;20210;-60
2022/04/30 11:15:10;;;;;;;1.80;1.25;;;12.00;99.90;;;;;;5080042;28;20200;-60
2022/04/30 11:17:43;;;;;;;2.35;1.33;;;11.90;99.90;;;;;;5079200;28;20196;-60
2022/04/30 11:20:20;;;;;;;2.45;1.45;;;11.90;99.90;;;;;;5088271;28;20203;-60
2022/04/30 11:22:52;;;;;;;1.98;1.35;;;11.90;99.90;;;;;;5114014;28;20252;-60
2022/04/30 11:25:19;;;;;;;2.25;1.50;;;12.10;99.90;;;;;;5108276;28;20290;-60
2022/04/30 11:27:46;;;;;;;2.50;1.50;;;11.90;99.90;;;;;;5090286;28;20767;-61
2022/04/30 11:30:14;;;;;;;1.40;1.23;;;12.00;99.90;;;;;;5084145;28;20200;-61
2022/04/30 11:32:48;;;;;;;2.03;1.40;;;11.90;99.90;;;;;;5078248;28;20220;-60
2022/04/30 11:35:16;;;;;;;3.30;1.38;;;11.90;99.90;;;;;;5061340;28;20227;-61
2022/04/30 11:37:44;;;;;;;3.92;1.25;;;11.90;99.90;;;;;;5084821;28;20223;-60
2022/04/30 11:40:13;;;;;;;5.90;2.10;;;11.80;99.90;;;;;;5094279;28;20196;-60
2022/04/30 11:42:40;;;;;;;3.15;1.60;;;11.90;99.90;;;;;;5073094;27;20227;-60
2022/04/30 11:45:08;;;;;;;1.70;1.30;;;12.00;99.90;;;;;;5064072;28;20204;-60
2022/04/30 11:47:35;;;;;;;1.90;1.30;;;12.10;99.90;;;;;;5085096;28;20579;-60
2022/04/30 11:50:06;;;;;;;0.85;0.82;;;12.20;99.90;;;;;;5082446;28;20215;-60
2022/04/30 11:52:35;;;;;;;1.30;1.10;;;12.30;99.90;;;;;;5069202;28;20247;-60
2022/04/30 11:55:07;;;;;;;2.25;0.90;;;12.20;99.90;;;;;;5089667;28;20246;-60
2022/04/30 11:57:35;;;;;;;2.53;1.00;;;12.20;99.90;;;;;;5086802;28;20251;-60
2022/04/30 12:00:02;;;;;;;1.85;1.08;;;12.20;99.90;;;;;;5076474;28;21137;-61
2022/04/30 12:02:30;;;;;;;3.10;1.20;;;12.40;99.90;;;;;;5076565;28;20314;-61
2022/04/30 12:05:02;;;;;;;1.58;1.10;;;12.50;99.90;;;;;;5075552;27;20334;-61
2022/04/30 12:07:38;;;;;;;1.70;1.00;;;12.30;99.90;;;;;;5068268;28;20231;-61
2022/04/30 12:10:18;;;;;;;1.15;1.05;;;12.30;99.90;;;;;;5089296;28;22257;-61
2022/04/30 12:12:44;;;;;;;0.90;0.90;;;12.40;99.90;;;;;;5080906;28;20707;-61
2022/04/30 12:15:20;;;;;;;3.80;1.25;;;12.50;99.90;;;;;;5035948;28;20219;-61
2022/04/30 12:24:40;;;;;;;1.15;0.90;;;12.50;99.90;;;;;;5044203;28;20230;-61
2022/04/30 12:26:13;;;;;;;1.58;1.48;;;12.70;99.90;;;;;;5074155;27;20628;-61
2022/04/30 12:28:46;;;;;;;1.75;1.30;;;12.70;99.90;;;;;;5075847;28;20263;-62
2022/04/30 12:31:13;;;;;;;3.08;1.10;;;12.40;99.90;;;;;;5076650;28;20231;-61
2022/04/30 12:33:45;;;;;;;4.93;1.23;;;12.30;99.90;;;;;;5045365;28;20700;-61
2022/04/30 12:36:13;;;;;;;1.23;1.02;;;12.40;99.90;;;;;;5057090;28;20242;-61
2022/04/30 12:38:52;;;;;;;1.27;1.17;;;12.20;99.90;;;;;;5043838;28;20220;-61
2022/04/30 12:41:19;;;;;;;1.40;1.30;;;12.10;99.90;;;;;;5067647;28;20253;-61
2022/04/30 12:43:46;;;;;;;2.85;1.20;;;12.20;99.90;;;;;;5053373;28;20626;-61
2022/04/30 12:46:20;;;;;;;1.42;1.25;;;12.40;99.90;;;;;;5084167;28;20230;-61
2022/04/30 12:48:47;;;;;;;4.93;1.50;;;12.40;99.90;;;;;;5065090;28;20245;-61
2022/04/30 12:51:14;;;;;;;2.40;1.20;;;12.30;99.90;;;;;;5053611;28;21056;-61
2022/04/30 12:53:43;;;;;;;5.90;1.77;;;12.40;99.90;;;;;;5051792;28;21051;-61
2022/04/30 12:56:11;;;;;;;1.35;1.25;;;12.70;99.90;;;;;;5072622;28;20731;-61
2022/04/30 12:58:39;;;;;;;2.05;1.35;;;12.50;99.90;;;;;;5068886;28;20720;-61
2022/04/30 13:01:07;;;;;;;6.40;1.55;;;12.40;99.90;;;;;;5081532;28;20212;-61
2022/04/30 13:03:35;;;;;;;2.55;1.23;;;12.40;99.90;;;;;;5045629;28;21067;-62
2022/04/30 13:06:04;;;;;;;2.88;1.30;;;12.40;99.90;;;;;;5066957;28;20236;-61
2022/04/30 13:13:58;;;;;;;2.28;1.13;;;12.40;99.90;;;;;;5091436;28;20330;-61
2022/04/30 13:16:31;;;;;;;2.25;0.95;;;12.40;99.90;;;;;;5071266;28;20214;-61
2022/04/30 13:18:58;;;;;;;1.25;1.10;;;12.30;99.90;;;;;;5070528;28;20955;-61
2022/04/30 13:21:26;;;;;;;3.38;1.02;;;12.30;99.90;;;;;;5070517;28;20203;-61
2022/04/30 13:23:53;;;;;;;1.60;1.40;;;12.40;99.90;;;;;;5054616;28;20303;-62
2022/04/30 13:26:22;;;;;;;1.58;1.10;;;12.40;99.90;;;;;;5061697;28;20351;-62
2022/04/30 13:28:50;;;;;;;1.95;1.33;;;12.60;99.90;;;;;;5070074;28;21065;-61
2022/04/30 13:31:17;;;;;;;1.65;1.42;;;12.50;99.90;;;;;;5064697;27;20261;-61
2022/04/30 13:33:44;;;;;;;2.65;1.90;;;12.60;99.90;;;;;;5071602;28;21247;-61
2022/04/30 13:36:11;;;;;;;1.40;1.20;;;12.60;99.90;;;;;;5066576;28;20343;-61
2022/04/30 13:38:40;;;;;;;13.95;2.72;;;12.80;99.90;;;;;;5061553;28;20250;-61
2022/04/30 13:41:07;;;;;;;10.82;2.40;;;12.90;99.90;;;;;;5062208;28;20219;-61
2022/04/30 13:43:36;;;;;;;5.03;1.55;;;12.90;99.90;;;;;;5088122;28;20358;-61